Time;durP1;ratioP1;P1;durP2;ratioP2;P2;SDS_P1;SDS_P2;PMS_P1;PMS_P2;Temp;Humidity;BMP_temperature;BMP_pressure;BME280_temperature;BME280_humidity;BME280_pressure;Samples;Min_cycle;Max_cycle;Signal;HPM_P1;HPM_P2
2020/12/04 00:01:04;;;;;;;109.97;40.83;;;;;;;2.36;79.47;100276.06;5103316;28;20104;-68
2020/12/04 00:03:30;;;;;;;116.67;38.73;;;;;;;2.52;79.03;100274.13;5103160;28;20107;-67
2020/12/04 00:05:55;;;;;;;120.00;39.03;;;;;;;2.56;78.64;100267.78;5103187;28;20040;-69
2020/12/04 00:08:21;;;;;;;122.03;41.43;;;;;;;2.58;78.42;100266.84;5101943;28;20225;-69
2020/12/04 00:10:46;;;;;;;122.43;41.37;;;;;;;2.58;78.59;100265.06;5103544;28;20039;-69
2020/12/04 00:13:12;;;;;;;118.17;40.00;;;;;;;2.66;79.02;100262.78;5103132;28;20046;-67
2020/12/04 00:15:37;;;;;;;121.23;41.47;;;;;;;2.68;78.75;100262.69;5102842;28;20099;-68
2020/12/04 00:18:02;;;;;;;129.43;43.97;;;;;;;2.54;79.01;100246.13;5102977;28;20036;-70
2020/12/04 00:20:28;;;;;;;136.10;46.27;;;;;;;2.59;79.12;100248.44;5103593;28;20214;-68
2020/12/04 00:22:54;;;;;;;128.70;43.80;;;;;;;2.66;79.10;100262.78;5103099;28;20237;-69
2020/12/04 00:25:20;;;;;;;116.97;39.70;;;;;;;2.59;79.45;100251.06;5103365;28;20028;-70
2020/12/04 00:27:45;;;;;;;109.00;39.30;;;;;;;2.69;79.81;100248.69;5102983;28;20038;-68
2020/12/04 00:30:11;;;;;;;118.87;40.80;;;;;;;2.82;78.74;100247.78;5103274;28;20171;-67
2020/12/04 00:32:36;;;;;;;109.73;40.77;;;;;;;2.89;78.36;100238.59;5102985;28;20077;-70
2020/12/04 00:35:02;;;;;;;117.40;44.07;;;;;;;3.08;77.02;100237.38;5103046;28;20099;-70
2020/12/04 00:37:28;;;;;;;136.70;49.97;;;;;;;2.83;77.42;100253.84;5103163;28;20044;-68
2020/12/04 00:39:53;;;;;;;125.30;43.97;;;;;;;2.77;78.76;100257.72;5103158;28;20093;-68
2020/12/04 00:42:19;;;;;;;109.03;41.83;;;;;;;2.79;78.99;100255.81;5102969;28;20107;-70
2020/12/04 00:44:44;;;;;;;125.70;44.73;;;;;;;2.93;78.48;100251.47;5103180;28;20214;-69
2020/12/04 00:47:10;;;;;;;117.27;44.40;;;;;;;3.01;77.95;100252.63;5102875;28;20069;-69
2020/12/04 00:49:35;;;;;;;114.60;42.30;;;;;;;3.05;77.48;100237.56;5103028;28;20036;-70
2020/12/04 00:52:00;;;;;;;109.80;40.13;;;;;;;3.03;78.04;100249.91;5102895;28;20040;-70
2020/12/04 00:54:26;;;;;;;105.37;40.13;;;;;;;3.00;78.11;100244.88;5102543;28;20099;-68
2020/12/04 00:56:51;;;;;;;115.57;41.87;;;;;;;3.06;78.53;100240.09;5102655;28;20100;-68
2020/12/04 00:59:17;;;;;;;118.07;41.77;;;;;;;2.99;78.29;100241.44;5102826;28;20039;-70
2020/12/04 01:01:42;;;;;;;110.40;42.50;;;;;;;2.91;78.23;100241.09;5102590;28;20032;-68
2020/12/04 01:04:08;;;;;;;116.10;42.83;;;;;;;2.75;79.26;100235.22;5102629;28;20040;-70
2020/12/04 01:06:36;;;;;;;123.60;47.77;;;;;;;2.91;79.08;100240.28;5102680;28;20036;-69
2020/12/04 01:09:07;;;;;;;123.10;45.57;;;;;;;2.85;79.04;100244.13;5102646;28;20051;-68
2020/12/04 01:11:32;;;;;;;122.67;45.53;;;;;;;2.85;79.11;100236.28;5102718;28;20081;-68
2020/12/04 01:13:59;;;;;;;122.23;43.87;;;;;;;3.01;79.28;100239.56;5102574;28;20036;-67
2020/12/04 01:16:24;;;;;;;124.10;43.73;;;;;;;3.14;77.63;100234.38;5102490;28;20028;-68
2020/12/04 01:18:50;;;;;;;115.17;41.93;;;;;;;3.09;78.17;100231.19;5102516;28;20069;-68
2020/12/04 01:21:15;;;;;;;114.83;41.80;;;;;;;2.99;78.86;100224.91;5102817;28;20044;-70
2020/12/04 01:23:41;;;;;;;113.73;42.10;;;;;;;3.12;77.93;100210.06;5102493;28;20081;-69
2020/12/04 01:26:07;;;;;;;112.13;42.63;;;;;;;3.02;78.03;100220.31;5102463;28;20092;-69
2020/12/04 01:28:33;;;;;;;108.37;40.03;;;;;;;2.98;78.35;100225.84;5106029;28;20262;-70
2020/12/04 01:30:59;;;;;;;110.27;40.30;;;;;;;2.89;78.85;100225.50;5106166;28;20077;-70
2020/12/04 01:33:24;;;;;;;113.83;41.33;;;;;;;3.03;78.74;100216.75;5105849;28;20032;-68
2020/12/04 01:35:49;;;;;;;121.17;42.07;;;;;;;2.99;79.09;100210.03;5105955;28;20036;-68
2020/12/04 01:38:15;;;;;;;110.20;41.13;;;;;;;2.76;79.33;100214.19;5105865;28;20040;-68
2020/12/04 01:40:41;;;;;;;116.67;41.47;;;;;;;2.86;79.69;100223.09;5106010;28;20092;-67
2020/12/04 01:43:06;;;;;;;121.63;42.50;;;;;;;2.89;80.06;100219.44;5105804;28;20046;-69
2020/12/04 01:45:35;;;;;;;106.93;40.57;;;;;;;2.92;79.44;100210.56;5106381;28;20202;-70
2020/12/04 01:48:02;;;;;;;109.70;39.60;;;;;;;3.12;78.75;100202.22;5105787;28;20035;-67
2020/12/04 01:50:28;;;;;;;104.70;39.03;;;;;;;2.82;79.52;100203.31;5106292;28;20253;-69
2020/12/04 01:52:53;;;;;;;112.17;38.67;;;;;;;2.87;80.01;100184.72;5105772;28;20066;-69
2020/12/04 01:55:20;;;;;;;111.97;42.30;;;;;;;2.76;79.69;100177.56;5105348;28;20044;-69
2020/12/04 01:57:47;;;;;;;117.97;40.73;;;;;;;2.96;79.84;100188.50;5105532;28;20032;-70
2020/12/04 02:00:13;;;;;;;122.40;43.60;;;;;;;2.97;79.76;100191.00;5104482;28;20075;-70
2020/12/04 02:02:43;;;;;;;111.53;40.23;;;;;;;2.81;79.99;100191.19;5105522;28;20058;-69
2020/12/04 02:05:09;;;;;;;125.80;42.37;;;;;;;2.97;80.23;100192.78;5105260;28;20121;-67
2020/12/04 02:07:46;;;;;;;124.67;41.43;;;;;;;3.09;79.29;100182.31;5105520;28;20032;-69
2020/12/04 02:10:35;;;;;;;122.27;41.10;;;;;;;3.12;79.04;100179.53;5105658;28;20036;-69
2020/12/04 02:13:01;;;;;;;125.50;41.93;;;;;;;3.04;79.25;100186.19;5104978;28;20048;-67
2020/12/04 02:15:27;;;;;;;144.43;44.93;;;;;;;3.04;79.63;100179.19;5105723;28;20043;-70
2020/12/04 02:17:57;;;;;;;136.33;43.97;;;;;;;3.00;80.18;100169.88;5105532;28;20244;-67
2020/12/04 02:20:23;;;;;;;127.93;43.07;;;;;;;3.04;80.22;100158.25;5105572;28;20314;-68
2020/12/04 02:22:49;;;;;;;130.57;43.97;;;;;;;3.13;79.90;100170.75;5105219;28;20311;-67
2020/12/04 02:25:14;;;;;;;131.67;43.83;;;;;;;3.04;79.55;100181.78;5105331;28;20078;-69
2020/12/04 02:27:46;;;;;;;124.80;43.17;;;;;;;2.95;80.24;100166.72;5105070;28;20139;-67
2020/12/04 02:30:17;;;;;;;123.27;41.17;;;;;;;2.86;80.16;100169.97;5104982;28;20035;-67
2020/12/04 02:32:42;;;;;;;112.60;41.20;;;;;;;2.95;80.32;100169.34;5104925;28;20039;-70
2020/12/04 02:35:08;;;;;;;120.83;41.23;;;;;;;3.02;80.15;100175.00;5105051;28;20107;-69
2020/12/04 02:37:33;;;;;;;133.90;45.37;;;;;;;3.10;79.81;100168.31;5104882;28;20036;-67
2020/12/04 02:39:59;;;;;;;124.07;42.23;;;;;;;3.16;79.50;100160.06;5104358;28;20112;-69
2020/12/04 02:42:24;;;;;;;129.90;41.33;;;;;;;3.24;78.51;100148.22;5104819;28;20310;-67
2020/12/04 02:44:49;;;;;;;133.03;42.60;;;;;;;3.25;78.37;100148.13;5104943;28;20040;-68
2020/12/04 02:47:15;;;;;;;131.77;46.03;;;;;;;3.16;78.83;100143.53;5104695;28;20043;-67
2020/12/04 02:49:40;;;;;;;131.23;44.73;;;;;;;3.15;79.36;100147.09;5104879;28;20044;-70
2020/12/04 02:52:06;;;;;;;125.53;43.45;;;;;;;3.15;78.88;100137.47;5104615;28;20030;-67
2020/12/04 02:54:31;;;;;;;134.43;43.47;;;;;;;3.15;79.59;100134.00;5104303;28;20044;-67
2020/12/04 02:56:56;;;;;;;126.27;42.53;;;;;;;3.18;79.15;100137.25;5104426;28;20229;-70
2020/12/04 02:59:22;;;;;;;134.57;44.73;;;;;;;3.23;79.36;100142.16;5104530;28;20099;-69
2020/12/04 03:01:47;;;;;;;131.07;44.40;;;;;;;3.25;78.71;100140.28;5104406;28;20032;-70
2020/12/04 03:04:13;;;;;;;126.07;45.27;;;;;;;3.03;78.98;100140.88;5104285;28;20115;-70
2020/12/04 03:06:38;;;;;;;141.07;45.00;;;;;;;3.06;80.32;100150.31;5104368;28;20028;-68
2020/12/04 03:09:03;;;;;;;144.47;46.13;;;;;;;3.09;80.24;100157.94;5104343;28;20103;-70
2020/12/04 03:11:29;;;;;;;147.23;47.10;;;;;;;3.20;79.39;100147.59;5104224;28;20125;-67
2020/12/04 03:13:54;;;;;;;149.00;47.80;;;;;;;3.22;78.91;100142.28;5104465;28;20032;-70
2020/12/04 03:16:20;;;;;;;149.40;45.87;;;;;;;3.00;79.51;100138.47;5104044;28;20073;-69
2020/12/04 03:18:45;;;;;;;146.73;46.70;;;;;;;2.98;80.40;100140.34;5104123;28;20039;-70
2020/12/04 03:21:11;;;;;;;151.23;48.37;;;;;;;3.09;79.84;100144.84;5104104;28;20035;-70
2020/12/04 03:23:37;;;;;;;141.07;46.43;;;;;;;3.09;79.75;100137.84;5103955;28;20047;-67
2020/12/04 03:26:02;;;;;;;149.67;47.70;;;;;;;3.02;80.26;100125.28;5103862;28;20039;-70
2020/12/04 03:28:28;;;;;;;161.00;49.67;;;;;;;3.11;80.16;100137.75;5103788;28;20032;-69
2020/12/04 03:30:53;;;;;;;164.10;50.03;;;;;;;3.14;79.88;100148.88;5103912;28;20087;-67
2020/12/04 03:33:19;;;;;;;177.33;51.97;;;;;;;3.09;79.79;100150.94;5103522;28;20095;-69
2020/12/04 03:35:45;;;;;;;180.67;51.97;;;;;;;3.19;79.97;100146.78;5103744;28;20060;-67
2020/12/04 03:38:10;;;;;;;173.73;49.30;;;;;;;3.16;79.79;100139.13;5103645;28;20036;-67
2020/12/04 03:40:36;;;;;;;153.20;49.33;;;;;;;3.20;79.51;100140.59;5103622;28;20044;-67
2020/12/04 03:43:01;;;;;;;170.33;54.80;;;;;;;3.16;79.55;100139.13;5103606;28;20036;-68
2020/12/04 03:45:27;;;;;;;179.13;52.83;;;;;;;3.22;79.64;100144.88;5104063;28;20044;-67
2020/12/04 03:47:52;;;;;;;163.00;51.27;;;;;;;3.25;79.50;100142.06;5103609;28;20039;-69
2020/12/04 03:50:18;;;;;;;146.37;49.63;;;;;;;3.18;79.27;100126.78;5103335;28;20036;-68
2020/12/04 03:52:43;;;;;;;159.23;50.73;;;;;;;3.20;79.04;100131.91;5103548;28;20031;-70
2020/12/04 03:55:09;;;;;;;160.03;47.97;;;;;;;3.20;79.39;100142.38;5103075;28;20051;-68
2020/12/04 03:57:34;;;;;;;156.77;51.17;;;;;;;3.27;79.65;100148.03;5103328;28;20028;-68
2020/12/04 03:59:59;;;;;;;163.32;51.00;;;;;;;3.26;79.23;100139.34;5103571;28;20225;-68
2020/12/04 04:02:25;;;;;;;177.67;50.40;;;;;;;3.16;79.95;100141.75;5103550;28;20262;-67
2020/12/04 04:04:51;;;;;;;163.07;50.50;;;;;;;3.09;80.29;100148.31;5103393;28;20036;-67
2020/12/04 04:07:16;;;;;;;170.33;51.80;;;;;;;3.22;79.74;100153.56;5103307;28;20321;-67
2020/12/04 04:09:42;;;;;;;156.47;50.57;;;;;;;3.16;79.86;100161.84;5103546;28;20036;-70
2020/12/04 04:12:09;;;;;;;154.77;52.53;;;;;;;3.12;80.27;100174.31;5103206;28;20070;-69
2020/12/04 04:14:34;;;;;;;170.93;54.30;;;;;;;3.16;80.02;100160.06;5103020;28;20044;-69
2020/12/04 04:16:59;;;;;;;160.10;50.77;;;;;;;3.22;79.41;100155.34;5103179;28;20036;-67
2020/12/04 04:19:25;;;;;;;159.77;49.10;;;;;;;2.81;80.85;100162.41;5101946;28;20036;-67
2020/12/04 04:21:50;;;;;;;165.97;49.33;;;;;;;2.96;81.01;100165.78;5103438;28;20024;-67
2020/12/04 04:24:16;;;;;;;171.03;50.37;;;;;;;2.91;81.15;100154.78;5103167;28;20028;-69
2020/12/04 04:26:41;;;;;;;165.43;49.13;;;;;;;2.74;82.09;100157.69;5102975;28;20099;-69
2020/12/04 04:29:07;;;;;;;174.60;51.47;;;;;;;2.85;82.66;100156.03;5101840;28;20055;-67
2020/12/04 04:31:32;;;;;;;164.70;50.23;;;;;;;2.95;81.85;100161.50;5102907;28;20042;-67
2020/12/04 04:33:57;;;;;;;165.93;47.87;;;;;;;2.91;82.29;100167.88;5102863;28;20040;-67
2020/12/04 04:36:23;;;;;;;163.63;46.93;;;;;;;3.00;82.20;100166.41;5102911;28;20252;-69
2020/12/04 04:38:48;;;;;;;164.97;46.63;;;;;;;2.99;82.11;100160.34;5102908;28;20205;-70
2020/12/04 04:41:15;;;;;;;162.77;48.30;;;;;;;3.15;81.29;100154.94;5102970;28;20023;-70
2020/12/04 04:43:41;;;;;;;148.00;45.80;;;;;;;3.06;80.78;100166.84;5102858;28;20043;-68
2020/12/04 04:46:25;;;;;;;150.25;45.70;;;;;;;3.09;81.33;100165.78;5102854;28;20036;-70
2020/12/04 04:48:55;;;;;;;149.37;45.33;;;;;;;3.11;81.46;100159.50;5102894;28;20050;-68
2020/12/04 04:51:22;;;;;;;131.30;42.23;;;;;;;3.16;80.95;100156.59;5101670;28;20333;-70
2020/12/04 04:53:55;;;;;;;131.93;41.73;;;;;;;3.26;79.57;100165.50;5102591;28;20078;-69
2020/12/04 04:56:21;;;;;;;135.30;43.47;;;;;;;3.14;80.59;100164.56;5101486;28;20035;-67
2020/12/04 04:58:46;;;;;;;130.00;43.37;;;;;;;3.09;80.73;100153.53;5102635;28;20044;-69
2020/12/04 05:01:12;;;;;;;137.53;43.57;;;;;;;3.11;80.71;100156.88;5102959;28;20037;-70
2020/12/04 05:03:37;;;;;;;140.37;43.67;;;;;;;3.12;80.23;100155.97;5106348;28;20326;-67
2020/12/04 05:06:02;;;;;;;147.07;49.00;;;;;;;3.16;80.74;100160.06;5106611;28;20261;-70
2020/12/04 05:08:28;;;;;;;152.00;44.67;;;;;;;3.06;81.09;100161.59;5105350;28;20028;-68
2020/12/04 05:11:07;;;;;;;146.43;44.47;;;;;;;2.98;81.46;100171.75;5106843;28;20310;-68
2020/12/04 05:13:32;;;;;;;143.77;45.50;;;;;;;3.03;81.63;100147.91;5106552;28;20032;-69
2020/12/04 05:15:58;;;;;;;143.67;43.23;;;;;;;3.12;81.05;100165.56;5106396;28;20073;-70
2020/12/04 05:18:23;;;;;;;150.50;43.80;;;;;;;2.95;81.40;100174.56;5106374;28;20131;-70
2020/12/04 05:20:54;;;;;;;138.40;44.50;;;;;;;2.86;81.25;100160.34;5106660;28;20085;-67
2020/12/04 05:23:21;;;;;;;138.17;45.83;;;;;;;3.03;81.64;100160.97;5106189;28;20226;-68
2020/12/04 05:25:49;;;;;;;154.33;51.33;;;;;;;3.07;81.44;100165.91;5106280;28;20023;-70
2020/12/04 05:28:20;;;;;;;138.07;44.95;;;;;;;3.03;81.83;100172.28;5106103;28;20043;-70
2020/12/04 05:30:47;;;;;;;138.47;43.87;;;;;;;3.05;81.35;100175.63;5105024;28;20056;-67
2020/12/04 05:33:13;;;;;;;140.60;45.63;;;;;;;3.16;80.58;100180.16;5104775;28;20020;-68
2020/12/04 05:35:40;;;;;;;144.30;48.53;;;;;;;3.13;80.79;100180.38;5106505;28;20043;-70
2020/12/04 05:38:07;;;;;;;139.00;43.70;;;;;;;3.11;81.21;100180.44;5104714;28;20341;-70
2020/12/04 05:40:36;;;;;;;134.23;43.03;;;;;;;3.17;81.15;100182.66;5106499;28;20052;-70
2020/12/04 05:43:03;;;;;;;128.80;44.80;;;;;;;3.29;80.96;100190.63;5105931;28;20242;-69
2020/12/04 05:45:29;;;;;;;150.82;44.42;;;;;;;3.24;80.83;100187.50;5106277;28;20040;-69
2020/12/04 05:47:55;;;;;;;139.57;44.00;;;;;;;3.01;81.89;100181.16;5105862;28;20036;-68
2020/12/04 05:50:20;;;;;;;123.03;41.80;;;;;;;3.24;81.33;100180.47;5106225;28;20039;-69
2020/12/04 05:52:48;;;;;;;134.83;45.47;;;;;;;3.21;81.35;100180.69;5105836;28;20293;-68
2020/12/04 05:55:15;;;;;;;134.53;44.63;;;;;;;3.23;80.98;100176.19;5105460;28;20040;-67
2020/12/04 05:57:46;;;;;;;131.20;43.87;;;;;;;3.35;80.14;100177.13;5105583;28;20318;-68
2020/12/04 06:00:14;;;;;;;117.27;39.50;;;;;;;3.28;81.36;100171.47;5105918;28;20142;-69
2020/12/04 06:02:40;;;;;;;112.27;34.40;;;;;;;3.30;80.85;100182.66;5105458;28;20234;-67
2020/12/04 06:05:07;;;;;;;119.43;40.37;;;;;;;3.28;80.22;100181.09;5105624;28;20047;-70
2020/12/04 06:07:33;;;;;;;121.83;40.20;;;;;;;3.16;81.27;100188.84;5105551;28;20036;-70
2020/12/04 06:09:58;;;;;;;121.43;42.70;;;;;;;3.34;80.47;100184.13;5105727;28;20131;-70
2020/12/04 06:12:24;;;;;;;136.13;46.47;;;;;;;3.34;80.65;100175.44;5105423;28;20036;-70
2020/12/04 06:14:50;;;;;;;131.00;42.57;;;;;;;3.39;80.25;100176.81;5104437;28;20044;-67
2020/12/04 06:17:16;;;;;;;118.70;39.28;;;;;;;3.42;79.43;100187.06;5105257;28;20383;-70
2020/12/04 06:19:43;;;;;;;111.17;36.73;;;;;;;3.27;80.41;100205.59;5105507;28;20036;-68
2020/12/04 06:22:09;;;;;;;117.57;38.97;;;;;;;3.30;80.96;100206.22;5105228;28;20032;-70
2020/12/04 06:24:55;;;;;;;122.13;38.80;;;;;;;3.37;81.33;100214.50;5105277;28;20112;-67
2020/12/04 06:27:33;;;;;;;112.83;39.77;;;;;;;3.51;80.20;100206.53;5105350;28;20040;-70
2020/12/04 06:29:58;;;;;;;128.87;40.80;;;;;;;3.51;80.07;100210.00;5105284;28;20040;-67
2020/12/04 06:32:44;;;;;;;120.67;41.53;;;;;;;3.51;80.13;100210.00;5104901;28;20035;-67
2020/12/04 06:35:11;;;;;;;138.43;46.63;;;;;;;3.52;80.17;100200.34;5105211;28;20240;-70
2020/12/04 06:37:38;;;;;;;159.13;52.90;;;;;;;3.61;79.82;100193.66;5103708;28;20028;-68
2020/12/04 06:40:27;;;;;;;211.03;65.03;;;;;;;3.58;79.73;100210.41;5103710;28;20040;-68
2020/12/04 06:43:00;;;;;;;182.73;62.70;;;;;;;3.41;80.36;100221.19;5105150;28;20032;-70
2020/12/04 06:45:44;;;;;;;126.90;40.10;;;;;;;3.43;80.51;100219.31;5105181;28;20210;-70
2020/12/04 06:48:15;;;;;;;112.43;37.60;;;;;;;3.37;80.99;100228.44;5104555;28;20032;-68
2020/12/04 06:50:43;;;;;;;96.17;33.60;;;;;;;3.32;81.09;100230.53;5104701;28;20303;-69
2020/12/04 06:53:10;;;;;;;98.90;32.67;;;;;;;3.49;80.72;100226.75;5104529;28;20024;-68
2020/12/04 06:55:36;;;;;;;101.30;34.60;;;;;;;3.50;80.81;100218.78;5104365;28;20044;-68
2020/12/04 06:58:02;;;;;;;116.27;37.87;;;;;;;3.60;80.02;100219.00;5104352;28;20028;-69
2020/12/04 07:00:28;;;;;;;127.07;40.30;;;;;;;3.48;80.07;100225.06;5104949;28;20036;-67
2020/12/04 07:02:53;;;;;;;146.90;40.63;;;;;;;3.46;81.67;100224.34;5103167;28;20237;-68
2020/12/04 07:05:27;;;;;;;116.47;35.03;;;;;;;3.55;81.02;100225.50;5104665;28;20039;-68
2020/12/04 07:08:08;;;;;;;127.30;42.45;;;;;;;3.59;80.99;100221.72;5104773;28;20035;-68
2020/12/04 07:10:35;;;;;;;128.87;39.47;;;;;;;3.70;80.31;100214.78;5104781;28;20273;-69
2020/12/04 07:13:02;;;;;;;131.83;39.20;;;;;;;3.65;79.95;100218.66;5104205;28;20028;-67
2020/12/04 07:15:28;;;;;;;124.85;36.70;;;;;;;3.40;81.82;100216.91;5104535;28;20036;-69
2020/12/04 07:17:55;;;;;;;131.10;38.90;;;;;;;3.57;81.12;100210.50;5104098;28;20020;-69
2020/12/04 07:20:21;;;;;;;133.67;41.03;;;;;;;3.65;81.05;100210.81;5104521;28;20028;-69
2020/12/04 07:22:47;;;;;;;128.07;38.33;;;;;;;3.66;80.97;100212.50;5104112;28;20115;-70
2020/12/04 07:25:12;;;;;;;122.63;37.03;;;;;;;3.72;80.78;100209.44;5103879;28;20043;-68
2020/12/04 07:27:39;;;;;;;130.33;40.23;;;;;;;3.74;80.53;100200.53;5104030;28;20032;-69
2020/12/04 07:30:17;;;;;;;119.03;37.43;;;;;;;3.84;79.09;100214.66;5104053;28;20035;-67
2020/12/04 07:32:53;;;;;;;108.83;34.37;;;;;;;3.80;79.90;100214.97;5103755;28;20036;-67
2020/12/04 07:35:19;;;;;;;118.73;36.27;;;;;;;3.91;79.89;100222.09;5104014;28;20044;-68
2020/12/04 07:37:45;;;;;;;125.37;37.80;;;;;;;3.81;79.81;100216.66;5103735;28;20040;-70
2020/12/04 07:40:13;;;;;;;122.20;40.40;;;;;;;3.79;79.89;100222.00;5104008;28;20042;-67
2020/12/04 07:42:39;;;;;;;125.67;40.07;;;;;;;3.61;80.66;100227.69;5103723;28;20028;-70
2020/12/04 07:45:04;;;;;;;122.77;36.63;;;;;;;3.53;80.81;100222.97;5103862;28;20046;-68
2020/12/04 07:47:30;;;;;;;117.90;39.63;;;;;;;3.65;81.41;100210.81;5103741;28;20047;-70
2020/12/04 07:50:00;;;;;;;118.97;38.30;;;;;;;3.59;81.48;100225.16;5103696;28;20050;-70
2020/12/04 07:52:27;;;;;;;121.30;40.47;;;;;;;3.79;80.88;100219.38;5103931;28;20065;-69
2020/12/04 07:55:10;;;;;;;124.45;38.33;;;;;;;3.71;80.09;100223.47;5103185;28;20109;-70
2020/12/04 07:57:42;;;;;;;119.82;38.63;;;;;;;3.58;81.26;100218.25;5103296;28;20063;-67
2020/12/04 08:00:08;;;;;;;130.10;39.17;;;;;;;3.51;81.28;100220.47;5103315;28;20305;-70
2020/12/04 08:02:34;;;;;;;127.40;38.03;;;;;;;3.54;81.96;100216.78;5103293;28;20098;-69
2020/12/04 08:04:59;;;;;;;144.67;41.13;;;;;;;3.63;81.66;100216.16;5103467;28;20027;-68
2020/12/04 08:07:32;;;;;;;109.78;36.13;;;;;;;3.49;82.00;100221.50;5103317;28;20032;-70
2020/12/04 08:10:01;;;;;;;118.10;38.88;;;;;;;3.80;81.10;100235.94;5102138;28;20229;-67
2020/12/04 08:12:32;;;;;;;112.90;36.90;;;;;;;3.71;81.37;100226.94;5103243;28;20032;-68
2020/12/04 08:15:00;;;;;;;107.15;36.67;;;;;;;3.81;81.32;100237.63;5103361;28;20047;-66
2020/12/04 08:17:31;;;;;;;98.75;34.85;;;;;;;3.69;81.63;100246.31;5103089;28;20314;-65
2020/12/04 08:19:59;;;;;;;95.13;33.27;;;;;;;3.74;81.32;100242.44;5103426;28;20039;-67
2020/12/04 08:22:30;;;;;;;97.53;32.33;;;;;;;3.73;81.28;100238.16;5102012;28;20027;-65
2020/12/04 08:27:31;;;;;;;90.97;31.77;;;;;;;3.85;80.90;100228.59;5103431;28;20028;-67
2020/12/04 08:30:18;;;;;;;97.68;31.30;;;;;;;3.87;81.19;100224.09;5103224;28;20044;-67
2020/12/04 08:32:58;;;;;;;90.07;32.42;;;;;;;4.01;80.41;100239.66;5102863;28;20031;-67
2020/12/04 08:35:30;;;;;;;92.50;34.93;;;;;;;3.89;80.80;100231.84;5101883;28;20036;-65
2020/12/04 08:38:14;;;;;;;121.03;40.37;;;;;;;4.06;80.01;100221.84;5105904;28;20028;-65
2020/12/04 08:40:42;;;;;;;99.40;32.78;;;;;;;4.14;78.99;100224.75;5107253;28;20483;-67
2020/12/04 08:43:14;;;;;;;85.15;28.90;;;;;;;4.04;79.70;100221.13;5106996;28;20039;-67
2020/12/04 08:45:41;;;;;;;86.43;33.53;;;;;;;4.15;79.55;100221.19;5106115;28;20424;-65
2020/12/04 08:48:11;;;;;;;114.00;38.70;;;;;;;4.08;79.86;100224.34;5106899;28;20036;-65
2020/12/04 08:50:41;;;;;;;91.87;32.07;;;;;;;4.05;79.52;100227.19;5107400;28;20040;-67
2020/12/04 08:53:11;;;;;;;106.93;34.13;;;;;;;4.12;79.50;100216.16;5106881;28;20207;-67
2020/12/04 08:55:37;;;;;;;99.33;32.50;;;;;;;4.32;78.06;100225.25;5106662;28;20055;-67
2020/12/04 08:58:03;;;;;;;115.67;40.23;;;;;;;4.14;79.11;100221.28;5106597;28;20031;-67
2020/12/04 09:00:31;;;;;;;102.10;36.27;;;;;;;4.18;78.99;100208.84;5107277;28;20032;-67
2020/12/04 09:02:56;;;;;;;114.13;37.37;;;;;;;4.10;80.23;100202.34;5105384;28;20282;-67
2020/12/04 09:05:22;;;;;;;104.70;38.42;;;;;;;4.14;80.17;100206.41;5106895;28;20032;-67
2020/12/04 09:07:48;;;;;;;108.97;35.40;;;;;;;4.14;80.08;100214.28;5107122;28;20247;-67
2020/12/04 09:10:17;;;;;;;114.75;37.72;;;;;;;4.02;80.47;100196.81;5106818;28;20084;-67
2020/12/04 09:12:44;;;;;;;113.85;37.20;;;;;;;4.31;79.49;100204.38;5106616;28;20091;-65
2020/12/04 09:15:12;;;;;;;109.20;35.83;;;;;;;4.31;79.21;100207.00;5106804;28;20051;-65
2020/12/04 09:17:38;;;;;;;118.55;40.17;;;;;;;4.16;79.87;100208.91;5106375;28;20099;-67
2020/12/04 09:20:06;;;;;;;111.88;39.03;;;;;;;4.32;79.37;100206.91;5106204;28;20097;-67
2020/12/04 09:22:32;;;;;;;108.45;36.35;;;;;;;4.28;79.62;100191.50;5106407;28;20032;-65
2020/12/04 09:25:02;;;;;;;102.05;34.63;;;;;;;4.19;79.44;100182.53;5106451;28;20036;-67
2020/12/04 09:27:28;;;;;;;101.80;35.03;;;;;;;4.13;80.20;100178.53;5106302;28;20083;-65
2020/12/04 09:29:54;;;;;;;109.75;39.47;;;;;;;4.20;79.62;100192.06;5106468;28;20039;-65
2020/12/04 09:32:21;;;;;;;104.07;36.00;;;;;;;4.11;80.08;100187.44;5106259;28;20020;-67
2020/12/04 09:34:48;;;;;;;107.53;36.65;;;;;;;4.31;79.77;100181.63;5106162;28;20040;-65
2020/12/04 09:37:15;;;;;;;121.13;40.72;;;;;;;4.40;79.00;100172.25;5105913;28;20027;-66
2020/12/04 09:39:43;;;;;;;106.22;35.67;;;;;;;4.37;78.93;100180.34;5106187;28;20343;-67
2020/12/04 09:42:11;;;;;;;112.43;37.17;;;;;;;4.31;79.32;100170.31;5105951;28;20024;-65
2020/12/04 09:44:37;;;;;;;98.47;34.70;;;;;;;4.41;78.67;100166.91;5106115;28;20133;-69
2020/12/04 09:47:02;;;;;;;103.28;34.80;;;;;;;4.37;79.17;100170.69;5105868;28;20318;-69
2020/12/04 09:49:28;;;;;;;98.13;32.75;;;;;;;4.43;79.27;100172.88;5105680;28;20054;-69
2020/12/04 09:51:56;;;;;;;96.10;34.63;;;;;;;4.44;78.85;100163.22;5105972;28;20225;-69
2020/12/04 09:54:21;;;;;;;99.57;35.47;;;;;;;4.42;78.64;100152.84;5105700;28;20040;-68
2020/12/04 09:56:50;;;;;;;109.93;38.38;;;;;;;4.35;78.92;100154.25;5105676;28;20034;-70
2020/12/04 09:59:15;;;;;;;110.18;38.63;;;;;;;4.36;79.29;100158.53;5105799;28;20032;-68
2020/12/04 10:01:41;;;;;;;100.45;37.58;;;;;;;4.36;79.46;100160.31;5105787;28;20357;-70
2020/12/04 10:04:06;;;;;;;111.05;39.05;;;;;;;4.43;79.13;100165.00;5105213;28;20393;-69
2020/12/04 10:06:31;;;;;;;115.97;39.70;;;;;;;4.45;79.37;100157.03;5105540;28;20222;-69
2020/12/04 10:08:57;;;;;;;133.30;47.60;;;;;;;4.36;78.86;100162.94;5105564;28;20042;-69
2020/12/04 10:11:22;;;;;;;138.18;44.05;;;;;;;4.48;78.56;100152.38;5105399;28;20032;-68
2020/12/04 10:13:48;;;;;;;171.20;49.30;;;;;;;4.40;78.50;100149.50;5105422;28;20222;-70
2020/12/04 10:16:13;;;;;;;144.40;45.53;;;;;;;4.41;78.60;100161.66;5105297;28;20370;-68
2020/12/04 10:18:38;;;;;;;126.75;42.70;;;;;;;4.35;78.65;100161.28;5105238;28;20040;-67
2020/12/04 10:21:04;;;;;;;137.13;45.78;;;;;;;4.30;78.68;100153.75;5105222;28;20074;-70
2020/12/04 10:23:29;;;;;;;309.15;109.13;;;;;;;4.35;79.17;100141.13;5105024;28;20061;-67
2020/12/04 10:25:55;;;;;;;281.27;101.07;;;;;;;4.41;78.67;100139.84;5105054;28;20313;-68
2020/12/04 10:28:21;;;;;;;148.73;52.72;;;;;;;4.46;77.95;100132.47;5104949;28;20042;-68
2020/12/04 10:30:47;;;;;;;143.73;51.85;;;;;;;4.24;78.96;100138.47;5104990;28;20088;-70
2020/12/04 10:33:12;;;;;;;130.23;44.13;;;;;;;4.23;79.40;100131.53;5104742;28;20091;-69
2020/12/04 10:35:37;;;;;;;133.07;44.75;;;;;;;4.27;79.63;100117.25;5105357;28;20087;-69
2020/12/04 10:38:03;;;;;;;133.05;45.72;;;;;;;4.56;78.90;100122.13;5104825;28;20045;-69
2020/12/04 10:40:29;;;;;;;117.13;40.10;;;;;;;4.27;79.96;100129.53;5105283;28;20150;-70
2020/12/04 10:42:54;;;;;;;112.80;37.50;;;;;;;4.35;80.70;100111.47;5104830;28;20019;-68
2020/12/04 10:45:20;;;;;;;122.82;45.78;;;;;;;4.30;80.25;100110.97;5105255;28;20360;-67
2020/12/04 10:47:45;;;;;;;115.80;37.70;;;;;;;3.97;80.65;100104.59;5104778;28;20034;-69
2020/12/04 10:50:11;;;;;;;122.55;40.95;;;;;;;3.97;81.04;100115.06;5105032;28;20073;-67
2020/12/04 10:52:39;;;;;;;123.72;43.42;;;;;;;3.89;82.21;100109.53;5103875;28;20035;-67
2020/12/04 10:55:04;;;;;;;131.10;41.08;;;;;;;3.99;82.75;100102.69;5104230;28;20044;-70
2020/12/04 10:57:30;;;;;;;190.00;58.70;;;;;;;3.99;81.81;100101.84;5104458;28;20028;-67
2020/12/04 10:59:55;;;;;;;124.40;41.47;;;;;;;3.84;82.73;100109.03;5104113;28;20058;-67
2020/12/04 11:02:31;;;;;;;122.32;40.50;;;;;;;4.02;82.11;100105.09;5104307;28;20275;-68
2020/12/04 11:07:41;;;;;;;116.20;37.55;;;;;;;4.11;81.90;100095.72;5104523;28;20376;-69
2020/12/04 11:10:06;;;;;;;119.75;39.08;;;;;;;4.20;81.74;100084.59;5104581;28;20036;-70
2020/12/04 11:12:32;;;;;;;111.53;37.35;;;;;;;4.35;81.56;100085.25;5104308;28;20036;-70
2020/12/04 11:14:57;;;;;;;127.55;40.78;;;;;;;4.30;81.44;100079.50;5104368;28;20060;-68